Time;durP1;ratioP1;P1;durP2;ratioP2;P2;SDS_P1;SDS_P2;PMS_P1;PMS_P2;Temp;Humidity;BMP_temperature;BMP_pressure;BME280_temperature;BME280_humidity;BME280_pressure;Samples;Min_cycle;Max_cycle;Signal;HPM_P1;HPM_P2
2022/04/07 05:00:35;;;;;;;1.30;0.40;;;9.80;99.90;;;;;;5931225;23;20023;31
2022/04/07 05:03:02;;;;;;;1.90;0.50;;;9.80;99.90;;;;;;4831054;29;20133;-89
2022/04/07 05:05:29;;;;;;;1.05;0.50;;;9.80;99.90;;;;;;4835317;29;20047;-91
2022/04/07 05:07:57;;;;;;;1.85;0.60;;;9.90;99.90;;;;;;4834920;29;20126;-88
2022/04/07 05:10:24;;;;;;;1.92;0.60;;;9.90;99.90;;;;;;4810937;29;20101;-89
2022/04/07 05:12:52;;;;;;;1.38;0.50;;;9.90;99.90;;;;;;4829040;29;20050;-89
2022/04/07 05:15:19;;;;;;;1.35;0.52;;;10.00;99.90;;;;;;4833399;29;20146;-88
2022/04/07 05:17:50;;;;;;;2.15;0.50;;;10.00;99.90;;;;;;4834701;29;20145;-90
2022/04/07 05:20:17;;;;;;;1.90;0.40;;;10.00;99.90;;;;;;4849588;29;20416;-89
2022/04/07 05:22:45;;;;;;;2.30;0.60;;;10.10;99.90;;;;;;4851146;29;20078;-89
2022/04/07 05:25:12;;;;;;;1.77;0.73;;;10.10;99.90;;;;;;4853312;29;20050;-88
2022/04/07 05:27:40;;;;;;;0.47;0.30;;;10.20;99.60;;;;;;4852754;29;20133;-87
2022/04/07 05:30:12;;;;;;;1.08;0.30;;;10.40;99.40;;;;;;4853804;29;20077;-89
2022/04/07 05:32:40;;;;;;;3.10;1.02;;;10.40;99.20;;;;;;4854068;29;20421;-89
2022/04/07 05:35:10;;;;;;;2.38;0.52;;;10.40;99.00;;;;;;4855385;29;20089;-88
2022/04/07 05:37:37;;;;;;;2.03;0.32;;;10.50;98.60;;;;;;4855394;29;20054;-89
2022/04/07 05:40:06;;;;;;;0.68;0.30;;;10.50;98.70;;;;;;4855343;29;20086;-89
2022/04/07 05:42:33;;;;;;;1.77;0.40;;;10.60;98.40;;;;;;4856232;29;20105;-88
2022/04/07 05:45:00;;;;;;;1.45;0.30;;;10.60;98.30;;;;;;4853333;29;20073;-88
2022/04/07 05:47:27;;;;;;;1.35;0.40;;;10.60;98.40;;;;;;4852924;29;20078;-88
2022/04/07 05:49:55;;;;;;;1.02;0.43;;;10.60;98.30;;;;;;4854095;29;20114;-88
2022/04/07 05:52:24;;;;;;;2.13;0.63;;;10.70;98.40;;;;;;4855823;29;20488;-89
2022/04/07 05:54:51;;;;;;;2.00;0.50;;;10.70;98.10;;;;;;4854724;29;20105;-89
2022/04/07 05:57:18;;;;;;;2.65;0.40;;;10.70;98.30;;;;;;4849211;29;20050;-89
2022/04/07 05:59:45;;;;;;;1.77;0.50;;;10.70;98.20;;;;;;4866610;29;20126;-87
2022/04/07 06:02:12;;;;;;;0.55;0.30;;;10.80;98.00;;;;;;4855280;29;20074;-88
2022/04/07 06:04:41;;;;;;;1.42;0.32;;;10.70;98.20;;;;;;4855764;29;20061;-88
2022/04/07 06:07:08;;;;;;;0.55;0.30;;;10.80;98.10;;;;;;4839625;29;20141;-90
2022/04/07 06:09:37;;;;;;;0.55;0.20;;;10.80;98.00;;;;;;4856996;29;20053;-90
2022/04/07 06:12:05;;;;;;;1.35;0.38;;;10.90;97.90;;;;;;4856862;29;20096;-89
2022/04/07 06:14:32;;;;;;;0.65;0.30;;;10.90;97.80;;;;;;4857739;29;20140;-87
2022/04/07 06:17:01;;;;;;;1.73;0.32;;;10.90;97.50;;;;;;4837054;29;20082;-89
2022/04/07 06:19:28;;;;;;;0.95;0.32;;;11.00;96.90;;;;;;4836800;29;20572;-88
2022/04/07 06:21:55;;;;;;;0.45;0.25;;;11.10;96.60;;;;;;4838483;29;20429;-89
2022/04/07 06:24:25;;;;;;;0.90;0.25;;;11.10;96.20;;;;;;4840628;29;20114;-87
2022/04/07 06:26:54;;;;;;;1.55;0.20;;;11.20;96.30;;;;;;4840486;29;20055;-90
2022/04/07 06:29:21;;;;;;;0.52;0.30;;;11.20;96.10;;;;;;4840883;29;20110;-88
2022/04/07 06:31:48;;;;;;;0.75;0.30;;;11.30;96.00;;;;;;4833817;29;20054;-88
2022/04/07 06:34:15;;;;;;;2.80;0.40;;;11.40;95.90;;;;;;4830623;29;20081;-89
2022/04/07 06:36:44;;;;;;;1.63;0.68;;;11.40;95.40;;;;;;4815621;29;20146;-88
2022/04/07 06:39:11;;;;;;;1.83;0.50;;;11.40;95.20;;;;;;4832464;29;20580;-88
2022/04/07 06:41:38;;;;;;;0.47;0.20;;;11.40;95.30;;;;;;4832501;29;20145;-89
2022/04/07 06:44:07;;;;;;;1.33;0.15;;;11.50;95.30;;;;;;4833964;29;20085;-90
2022/04/07 06:46:35;;;;;;;1.90;0.35;;;11.40;95.10;;;;;;4831549;29;20074;-89
2022/04/07 06:49:02;;;;;;;0.65;0.22;;;11.40;94.90;;;;;;4828904;29;20142;-89
2022/04/07 06:51:31;;;;;;;0.70;0.10;;;11.50;94.80;;;;;;4833999;29;20040;-87
2022/04/07 06:53:58;;;;;;;0.95;0.20;;;11.50;94.80;;;;;;4812155;29;20129;-89
2022/04/07 06:56:25;;;;;;;1.38;0.40;;;11.50;94.80;;;;;;4827462;29;20137;-90
2022/04/07 06:58:54;;;;;;;2.85;0.47;;;11.50;94.50;;;;;;4827193;29;20055;-88
2022/04/07 07:01:22;;;;;;;2.03;0.47;;;11.50;94.40;;;;;;4826676;29;20145;-89
2022/04/07 07:03:49;;;;;;;0.98;0.28;;;11.60;94.30;;;;;;4827327;29;20050;-90
2022/04/07 07:06:17;;;;;;;2.13;0.45;;;11.50;94.20;;;;;;4827352;29;20420;-89
2022/04/07 07:08:45;;;;;;;1.20;0.10;;;11.50;94.10;;;;;;4827857;29;20050;-90
2022/04/07 07:11:12;;;;;;;0.82;0.28;;;11.50;94.20;;;;;;4845894;29;20065;-88
2022/04/07 07:13:42;;;;;;;1.58;0.30;;;11.60;94.10;;;;;;4831145;29;20051;-89
2022/04/07 07:16:09;;;;;;;1.02;0.30;;;11.60;94.10;;;;;;4840384;29;20122;-87
2022/04/07 07:18:38;;;;;;;2.25;0.35;;;11.60;94.20;;;;;;4846616;29;20137;-89
2022/04/07 07:21:05;;;;;;;1.42;0.28;;;11.60;93.70;;;;;;4844758;29;20105;-87
2022/04/07 07:23:33;;;;;;;0.80;0.30;;;11.60;93.70;;;;;;4847755;29;20060;-89
2022/04/07 07:26:00;;;;;;;0.52;0.20;;;11.60;93.90;;;;;;4845573;29;20046;-89
2022/04/07 07:28:27;;;;;;;0.57;0.20;;;11.60;93.80;;;;;;4847288;29;20097;-89
2022/04/07 07:30:54;;;;;;;6.85;0.60;;;11.70;93.90;;;;;;4844459;29;20500;-88
2022/04/07 07:33:21;;;;;;;3.70;0.45;;;11.70;93.70;;;;;;4845167;29;20097;-88
2022/04/07 07:35:50;;;;;;;2.03;0.50;;;11.80;93.50;;;;;;4848423;29;20145;-89
2022/04/07 07:38:17;;;;;;;1.00;0.35;;;11.80;93.70;;;;;;4830215;29;20060;-87
2022/04/07 07:40:45;;;;;;;0.63;0.20;;;11.80;93.70;;;;;;4850328;29;20132;-88
2022/04/07 07:43:12;;;;;;;0.80;0.40;;;11.80;93.80;;;;;;4843051;29;20411;-90
2022/04/07 07:45:39;;;;;;;1.05;0.20;;;11.80;94.00;;;;;;4827593;29;20158;-88
2022/04/07 07:48:07;;;;;;;2.00;0.50;;;11.80;93.90;;;;;;4826271;29;20058;-85
2022/04/07 07:50:34;;;;;;;1.60;0.30;;;11.80;94.00;;;;;;4826742;29;20126;-88
2022/04/07 07:53:03;;;;;;;0.88;0.30;;;11.90;94.10;;;;;;4826402;29;20054;-89
2022/04/07 07:55:35;;;;;;;2.63;0.30;;;11.80;94.10;;;;;;4840478;29;20508;-90
2022/04/07 07:58:03;;;;;;;1.52;0.35;;;11.90;94.10;;;;;;4810983;29;20093;-90
2022/04/07 08:00:30;;;;;;;1.15;0.38;;;11.90;94.10;;;;;;4827168;29;20428;-88
2022/04/07 08:02:57;;;;;;;1.45;0.20;;;11.90;94.10;;;;;;4826496;29;20094;-89
2022/04/07 08:05:24;;;;;;;1.65;0.30;;;12.00;94.10;;;;;;4825798;29;20141;-88
2022/04/07 08:07:51;;;;;;;1.00;0.30;;;12.00;93.70;;;;;;4826191;29;20431;-88
2022/04/07 08:10:20;;;;;;;2.38;0.57;;;12.00;93.60;;;;;;4826567;29;20402;-88
2022/04/07 08:12:47;;;;;;;0.90;0.30;;;12.10;93.60;;;;;;4825631;29;20078;-88
2022/04/07 08:15:14;;;;;;;3.85;0.40;;;12.10;93.70;;;;;;4845371;29;20100;-88
2022/04/07 08:17:41;;;;;;;1.70;0.43;;;12.10;93.70;;;;;;4835011;29;20145;-86
2022/04/07 08:20:10;;;;;;;2.35;0.60;;;12.10;93.70;;;;;;4826066;29;20114;-87
2022/04/07 08:22:37;;;;;;;3.97;0.55;;;12.20;93.80;;;;;;4840222;29;20062;-86
2022/04/07 08:25:05;;;;;;;4.15;0.60;;;12.20;93.50;;;;;;4839075;29;20054;-86
2022/04/07 08:27:34;;;;;;;2.80;0.60;;;12.20;93.50;;;;;;4825988;29;20125;-86
2022/04/07 08:30:02;;;;;;;1.48;0.30;;;12.30;93.60;;;;;;4825794;29;20088;-88
2022/04/07 08:32:31;;;;;;;2.45;0.40;;;12.30;93.40;;;;;;4825083;29;20104;-89
2022/04/07 08:34:59;;;;;;;1.25;0.17;;;12.40;93.50;;;;;;4825791;29;20054;-89
2022/04/07 08:37:26;;;;;;;1.45;0.50;;;12.50;93.50;;;;;;4809919;29;20118;-88
2022/04/07 08:39:53;;;;;;;4.97;0.43;;;12.50;93.20;;;;;;4833064;29;20137;-86
2022/04/07 08:42:23;;;;;;;1.40;0.40;;;12.50;93.30;;;;;;4842420;29;20823;-91
2022/04/07 08:44:52;;;;;;;2.90;0.40;;;12.50;93.50;;;;;;4842167;29;20068;-90
2022/04/07 08:47:21;;;;;;;5.07;0.47;;;12.50;93.50;;;;;;4841976;29;20093;-90
2022/04/07 08:49:49;;;;;;;1.80;0.30;;;12.50;93.80;;;;;;4856141;29;20050;-90
2022/04/07 08:52:17;;;;;;;1.58;0.30;;;12.50;93.80;;;;;;4831098;29;20086;-92
2022/04/07 08:54:46;;;;;;;4.00;0.47;;;12.60;93.60;;;;;;4858427;29;20073;-88
2022/04/07 08:57:14;;;;;;;1.85;0.40;;;12.60;93.90;;;;;;4861881;29;20084;-90
2022/04/07 08:59:41;;;;;;;1.70;0.22;;;12.60;93.90;;;;;;4853935;29;20082;-89
2022/04/07 09:02:11;;;;;;;2.03;0.50;;;12.60;93.70;;;;;;4853224;29;20161;-87
2022/04/07 09:04:40;;;;;;;2.63;0.40;;;12.60;93.70;;;;;;4866480;29;20584;-89
2022/04/07 09:07:08;;;;;;;1.42;0.50;;;12.70;93.30;;;;;;4855822;29;20050;-89
2022/04/07 09:09:37;;;;;;;0.73;0.30;;;12.70;93.30;;;;;;4841764;29;20446;-90
2022/04/07 09:12:05;;;;;;;1.02;0.30;;;12.80;93.20;;;;;;4823885;29;20152;-91
2022/04/07 09:14:37;;;;;;;3.22;0.47;;;12.90;93.10;;;;;;4824219;29;20068;-92
2022/04/07 09:17:05;;;;;;;0.65;0.30;;;12.90;92.70;;;;;;4824228;29;20054;-89
2022/04/07 09:19:36;;;;;;;3.83;0.40;;;12.90;92.80;;;;;;4829990;29;20088;-91
2022/04/07 09:22:09;;;;;;;1.13;0.30;;;12.90;92.80;;;;;;4831397;29;20077;-90
2022/04/07 09:24:36;;;;;;;2.47;0.65;;;13.00;93.00;;;;;;4823366;29;20118;-89
2022/04/07 09:27:05;;;;;;;2.65;0.40;;;12.90;93.90;;;;;;4821761;29;20059;-90
2022/04/07 09:29:41;;;;;;;0.57;0.20;;;12.90;94.80;;;;;;4807204;29;20066;-90
2022/04/07 09:32:21;;;;;;;1.35;0.40;;;12.80;94.60;;;;;;4823144;29;20141;-92
2022/04/07 09:34:53;;;;;;;1.77;0.30;;;12.80;94.70;;;;;;4817684;29;20053;-91
2022/04/07 09:37:22;;;;;;;1.30;0.32;;;12.90;94.90;;;;;;4841271;29;20102;-89
2022/04/07 09:39:50;;;;;;;2.17;0.47;;;13.00;94.80;;;;;;4854811;29;20053;-89
2022/04/07 09:42:23;;;;;;;1.73;0.47;;;13.00;94.60;;;;;;4824207;29;20058;-90
2022/04/07 09:44:52;;;;;;;1.20;0.30;;;13.00;94.30;;;;;;4843886;29;20057;-90
2022/04/07 09:47:20;;;;;;;0.88;0.32;;;13.00;94.10;;;;;;4844077;29;20066;-87
2022/04/07 09:49:50;;;;;;;1.10;0.30;;;13.10;93.80;;;;;;4860746;29;20061;-90
2022/04/07 09:52:22;;;;;;;1.58;0.22;;;13.10;93.50;;;;;;4845922;29;20516;-88
2022/04/07 09:54:52;;;;;;;0.90;0.35;;;13.20;93.30;;;;;;4841927;29;20496;-89
2022/04/07 09:57:20;;;;;;;0.52;0.20;;;13.20;93.40;;;;;;4844794;29;20061;-89
2022/04/07 09:59:49;;;;;;;1.75;0.40;;;13.20;93.30;;;;;;4845528;29;20054;-87
2022/04/07 10:02:18;;;;;;;0.98;0.50;;;13.30;92.80;;;;;;4824967;29;20063;-87
2022/04/07 10:04:46;;;;;;;1.63;0.30;;;13.30;93.70;;;;;;4825732;29;20069;-86
2022/04/07 10:07:15;;;;;;;3.30;0.50;;;13.20;94.70;;;;;;4825560;29;20408;-86
2022/04/07 10:09:46;;;;;;;0.45;0.20;;;13.20;96.00;;;;;;4853366;29;20133;-87
2022/04/07 10:12:14;;;;;;;1.50;0.60;;;13.10;95.70;;;;;;4844486;29;20076;-89
2022/04/07 10:14:41;;;;;;;1.17;0.30;;;13.10;95.00;;;;;;4827674;29;20066;-88
2022/04/07 10:17:13;;;;;;;1.15;0.38;;;13.10;94.70;;;;;;4840543;29;20054;-90
2022/04/07 10:19:46;;;;;;;1.25;0.30;;;13.30;94.10;;;;;;4827297;29;20113;-87
2022/04/07 10:22:56;;;;;;;0.63;0.30;;;13.40;93.30;;;;;;4835749;29;20062;-89
2022/04/07 10:25:26;;;;;;;1.65;0.40;;;13.30;93.50;;;;;;4844485;29;20057;-89
2022/04/07 10:27:57;;;;;;;0.45;0.25;;;13.40;93.50;;;;;;4841036;29;20054;-89
2022/04/07 10:30:25;;;;;;;1.08;0.30;;;13.30;93.60;;;;;;4809365;29;20570;-87
2022/04/07 10:32:55;;;;;;;1.15;0.30;;;13.30;93.50;;;;;;4829546;29;20061;-90
2022/04/07 10:35:37;;;;;;;1.80;0.50;;;13.30;93.10;;;;;;4825799;29;20062;-89
2022/04/07 10:38:07;;;;;;;0.75;0.20;;;13.40;93.20;;;;;;4826230;29;20065;-89
2022/04/07 10:40:50;;;;;;;0.90;0.17;;;13.40;92.90;;;;;;4825995;29;20062;-87
2022/04/07 10:43:23;;;;;;;0.93;0.30;;;13.40;93.00;;;;;;4826484;29;20110;-87
2022/04/07 10:45:52;;;;;;;1.35;0.30;;;13.40;92.60;;;;;;4837075;29;20050;-91
2022/04/07 10:48:26;;;;;;;1.63;0.20;;;13.40;92.80;;;;;;4845998;29;20050;-87
2022/04/07 10:50:56;;;;;;;0.93;0.50;;;13.30;92.90;;;;;;4831769;29;20145;-88
2022/04/07 10:53:27;;;;;;;1.42;0.30;;;13.40;92.60;;;;;;4843061;29;20061;-90
2022/04/07 10:56:06;;;;;;;1.42;0.20;;;13.40;92.70;;;;;;4830302;29;20504;-89
2022/04/07 10:58:51;;;;;;;1.48;0.30;;;13.40;93.20;;;;;;4823913;29;20050;-88
2022/04/07 11:01:59;;;;;;;1.75;0.40;;;13.40;93.00;;;;;;4826948;29;20062;-89
2022/04/07 11:04:46;;;;;;;1.15;0.20;;;13.40;92.70;;;;;;4826251;29;20054;-88
2022/04/07 11:07:23;;;;;;;0.32;0.20;;;13.40;92.80;;;;;;4828235;29;20075;-89
2022/04/07 11:10:04;;;;;;;1.20;0.20;;;13.50;93.10;;;;;;4857778;29;20136;-89
2022/04/07 11:12:37;;;;;;;0.40;0.20;;;13.40;92.90;;;;;;4841537;29;20060;-89
2022/04/07 11:15:48;;;;;;;0.30;0.17;;;13.40;92.80;;;;;;4827187;29;20064;-89
2022/04/07 11:18:40;;;;;;;1.15;0.45;;;13.40;92.90;;;;;;4837549;29;20055;-89
2022/04/07 11:21:12;;;;;;;0.60;0.20;;;13.60;92.90;;;;;;4836551;29;20050;-90
2022/04/07 11:23:45;;;;;;;0.60;0.35;;;13.60;92.90;;;;;;4834133;29;20054;-88
2022/04/07 11:26:21;;;;;;;0.88;0.20;;;13.60;92.80;;;;;;4837091;29;20125;-89
2022/04/07 11:29:07;;;;;;;0.13;0.10;;;13.70;92.80;;;;;;4840407;29;20061;-89
2022/04/07 11:31:43;;;;;;;0.40;0.13;;;13.80;92.50;;;;;;4846798;29;20061;-90
2022/04/07 11:34:42;;;;;;;1.45;0.57;;;13.90;92.00;;;;;;4828655;29;20100;-90
2022/04/07 11:37:14;;;;;;;3.20;0.90;;;13.90;91.70;;;;;;4827225;29;20058;-90
2022/04/07 11:39:42;;;;;;;2.00;0.20;;;13.90;92.00;;;;;;4841986;29;20054;-88
2022/04/07 11:42:10;;;;;;;0.68;0.10;;;14.00;91.80;;;;;;4840013;29;20069;-90
2022/04/07 11:44:42;;;;;;;0.65;0.10;;;14.10;91.60;;;;;;4809347;29;20072;-89
2022/04/07 11:47:24;;;;;;;2.35;0.30;;;14.10;91.70;;;;;;4839935;29;20073;-92
2022/04/07 11:49:51;;;;;;;2.45;0.38;;;14.10;91.70;;;;;;4826736;29;20050;-91
2022/04/07 11:52:25;;;;;;;2.08;0.22;;;14.20;91.80;;;;;;4810676;29;20095;-90
2022/04/07 11:54:57;;;;;;;0.60;0.10;;;14.20;91.90;;;;;;4836886;29;20083;-89
2022/04/07 11:57:25;;;;;;;2.15;0.20;;;14.10;91.90;;;;;;4839303;29;20510;-89
2022/04/07 11:59:57;;;;;;;1.77;0.30;;;14.00;91.40;;;;;;4826057;29;20054;-88
2022/04/07 12:02:26;;;;;;;0.80;0.10;;;13.90;91.70;;;;;;4841277;29;20091;-91
2022/04/07 12:04:59;;;;;;;4.20;1.45;;;14.00;91.80;;;;;;4808673;29;20092;-87
2022/04/07 12:07:26;;;;;;;4.15;1.15;;;13.90;91.50;;;;;;4809627;29;20051;-90
2022/04/07 12:10:07;;;;;;;1.92;0.38;;;14.00;91.90;;;;;;4791567;29;20508;-90
2022/04/07 12:12:34;;;;;;;0.30;0.10;;;14.00;91.70;;;;;;4806066;29;20501;-88
2022/04/07 12:15:03;;;;;;;0.20;0.03;;;14.00;91.20;;;;;;4805389;29;20540;-91
2022/04/07 12:17:46;;;;;;;0.45;0.13;;;13.90;91.70;;;;;;4823508;29;20061;-90
2022/04/07 12:20:22;;;;;;;0.50;0.10;;;13.80;92.40;;;;;;4824570;29;20082;-89
2022/04/07 12:23:05;;;;;;;1.05;0.17;;;13.70;92.00;;;;;;4836372;29;20062;-89
2022/04/07 12:25:32;;;;;;;2.28;0.20;;;13.70;92.60;;;;;;4845647;29;20050;-88
2022/04/07 12:28:08;;;;;;;0.88;0.10;;;13.60;92.70;;;;;;4843990;29;20066;-90
2022/04/07 12:30:50;;;;;;;0.90;0.20;;;13.50;92.90;;;;;;4844589;29;20114;-89
2022/04/07 12:33:36;;;;;;;0.77;0.20;;;13.40;93.20;;;;;;4858002;29;20053;-89
2022/04/07 12:36:04;;;;;;;1.60;0.20;;;13.40;93.50;;;;;;4842180;29;20093;-92
2022/04/07 12:38:31;;;;;;;1.95;0.30;;;13.40;93.20;;;;;;4825981;29;20522;-90
2022/04/07 12:41:13;;;;;;;1.02;0.30;;;13.40;93.50;;;;;;4832340;29;20081;-90
2022/04/07 12:43:50;;;;;;;1.98;0.30;;;13.40;93.80;;;;;;4824116;29;20058;-89
2022/04/07 12:46:19;;;;;;;0.88;0.13;;;13.40;94.10;;;;;;4823781;29;20069;-90
2022/04/07 12:49:07;;;;;;;1.70;0.15;;;13.40;94.10;;;;;;4821250;29;20140;-89
2022/04/07 12:51:37;;;;;;;2.47;0.20;;;13.20;94.30;;;;;;4823173;29;20428;-89
2022/04/07 12:54:13;;;;;;;0.52;0.10;;;13.20;94.80;;;;;;4821745;29;20112;-88
2022/04/07 12:56:42;;;;;;;0.80;0.20;;;13.10;95.10;;;;;;4822941;29;20054;-90
2022/04/07 12:59:12;;;;;;;0.73;0.10;;;13.20;95.30;;;;;;4823649;29;20062;-89
2022/04/07 13:01:48;;;;;;;2.40;0.30;;;13.00;95.90;;;;;;4823191;29;20090;-89
2022/04/07 13:04:17;;;;;;;0.95;0.20;;;13.00;96.00;;;;;;4836462;29;20069;-87
2022/04/07 13:06:45;;;;;;;0.60;0.20;;;13.00;96.20;;;;;;4822567;29;20055;-90
2022/04/07 13:09:12;;;;;;;0.75;0.20;;;13.10;96.10;;;;;;4822923;29;20058;-86
2022/04/07 13:11:42;;;;;;;1.45;0.30;;;13.20;95.90;;;;;;4838350;29;20083;-88
2022/04/07 13:14:13;;;;;;;0.10;0.03;;;13.20;95.90;;;;;;4842458;29;20062;-91
2022/04/07 13:16:44;;;;;;;0.63;0.20;;;13.20;95.80;;;;;;4826304;29;20140;-90
2022/04/07 13:19:11;;;;;;;2.10;0.40;;;13.30;95.60;;;;;;4846701;29;20100;-91
2022/04/07 13:21:40;;;;;;;0.47;0.10;;;13.70;95.00;;;;;;4845760;29;20177;-91
2022/04/07 13:24:08;;;;;;;1.92;0.30;;;13.70;94.80;;;;;;4829067;29;20065;-89
2022/04/07 13:26:35;;;;;;;0.77;0.20;;;13.70;94.90;;;;;;4858382;29;20054;-89
2022/04/07 13:29:03;;;;;;;0.63;0.30;;;13.80;94.20;;;;;;4858489;29;20136;-87
2022/04/07 13:31:30;;;;;;;0.40;0.15;;;13.90;94.30;;;;;;4827671;29;20073;-90
2022/04/07 13:34:01;;;;;;;1.00;0.30;;;13.90;94.20;;;;;;4846314;29;20152;-91
2022/04/07 13:36:29;;;;;;;1.35;0.43;;;14.00;94.10;;;;;;4847657;29;20054;-91
2022/04/07 13:38:56;;;;;;;2.60;0.28;;;14.00;93.50;;;;;;4844282;29;20085;-89
2022/04/07 13:41:24;;;;;;;5.30;2.10;;;14.00;93.30;;;;;;4845408;29;20517;-90
2022/04/07 13:43:52;;;;;;;0.75;0.40;;;13.90;93.30;;;;;;4844886;29;20053;-90
2022/04/07 13:46:19;;;;;;;0.60;0.20;;;13.90;93.50;;;;;;4844620;29;20092;-91
2022/04/07 13:48:47;;;;;;;2.08;0.30;;;13.80;93.40;;;;;;4829505;29;20121;-88
2022/04/07 13:51:17;;;;;;;1.15;0.30;;;13.90;93.30;;;;;;4844452;29;20077;-89
2022/04/07 13:53:44;;;;;;;1.10;0.30;;;13.90;93.50;;;;;;4842913;29;20064;-90
2022/04/07 13:56:12;;;;;;;1.45;0.13;;;13.90;93.30;;;;;;4845126;29;20062;-91
2022/04/07 13:58:42;;;;;;;0.93;0.20;;;13.80;93.40;;;;;;4845821;29;20540;-93
2022/04/07 14:01:10;;;;;;;0.47;0.20;;;13.90;93.50;;;;;;4845769;29;20614;-88
2022/04/07 14:03:39;;;;;;;2.30;0.22;;;13.80;93.40;;;;;;4860201;29;20078;-91
2022/04/07 14:06:07;;;;;;;0.68;0.20;;;13.80;93.80;;;;;;4842133;29;20054;-90
2022/04/07 14:08:36;;;;;;;1.73;0.30;;;13.80;93.80;;;;;;4826112;29;20121;-89
2022/04/07 14:11:03;;;;;;;0.70;0.20;;;14.00;93.50;;;;;;4841086;29;20141;-89
2022/04/07 14:13:30;;;;;;;0.93;0.20;;;13.90;93.70;;;;;;4826878;29;20064;-92
2022/04/07 14:15:58;;;;;;;0.47;0.20;;;14.00;93.40;;;;;;4826958;29;20508;-90
2022/04/07 14:18:25;;;;;;;0.57;0.25;;;13.90;93.50;;;;;;4827985;29;20119;-92
2022/04/07 14:20:52;;;;;;;1.95;0.30;;;14.00;93.20;;;;;;4826736;29;20503;-90
2022/04/07 14:23:19;;;;;;;1.75;0.30;;;14.00;93.30;;;;;;4829309;29;20107;-90
2022/04/07 14:25:48;;;;;;;0.25;0.08;;;14.00;93.10;;;;;;4826906;29;20063;-89
2022/04/07 14:28:16;;;;;;;2.58;0.30;;;14.00;93.30;;;;;;4811733;29;20096;-89
2022/04/07 14:30:49;;;;;;;0.52;0.15;;;14.10;93.20;;;;;;4810412;29;20417;-90
2022/04/07 14:33:16;;;;;;;0.68;0.22;;;14.20;93.00;;;;;;4828179;29;20062;-90
2022/04/07 14:35:44;;;;;;;1.20;0.30;;;14.40;92.50;;;;;;4842124;29;20066;-89
2022/04/07 14:38:12;;;;;;;2.92;0.20;;;14.50;92.10;;;;;;4844158;29;20114;-89
2022/04/07 14:40:42;;;;;;;1.83;0.30;;;14.50;92.20;;;;;;4843903;29;20475;-90
2022/04/07 14:43:11;;;;;;;0.50;0.10;;;14.40;92.20;;;;;;4847663;29;20114;-92
2022/04/07 14:45:39;;;;;;;0.47;0.20;;;14.40;92.30;;;;;;4845196;29;20093;-92
2022/04/07 14:48:08;;;;;;;1.13;0.38;;;14.30;92.60;;;;;;4859684;29;20054;-91
2022/04/07 14:50:36;;;;;;;1.30;0.45;;;14.30;92.40;;;;;;4860821;29;20113;-91
2022/04/07 14:53:04;;;;;;;8.68;3.63;;;14.30;92.30;;;;;;4846932;29;20049;-89
2022/04/07 14:55:31;;;;;;;1.17;0.30;;;14.40;92.40;;;;;;4842833;29;20062;-90
2022/04/07 14:57:59;;;;;;;0.95;0.32;;;14.60;92.20;;;;;;4834699;29;20124;-83
2022/04/07 15:00:27;;;;;;;1.58;0.30;;;15.40;90.00;;;;;;4835560;29;20472;-84
2022/04/07 15:02:54;;;;;;;2.53;0.20;;;16.00;86.80;;;;;;4834748;29;20060;-82
2022/04/07 15:05:21;;;;;;;3.85;0.30;;;15.80;85.60;;;;;;4835767;29;20069;-83
2022/04/07 15:07:48;;;;;;;0.85;0.30;;;15.30;87.80;;;;;;4838292;29;20050;-83
2022/04/07 15:10:16;;;;;;;0.85;0.30;;;15.40;87.30;;;;;;4841460;29;20094;-83
2022/04/07 15:12:44;;;;;;;2.72;0.50;;;15.00;89.40;;;;;;4854752;29;20062;-82
2022/04/07 15:15:11;;;;;;;1.38;0.20;;;14.80;90.10;;;;;;4840516;29;20066;-82
2022/04/07 15:17:40;;;;;;;2.17;0.22;;;15.00;90.10;;;;;;4839841;29;20133;-83
2022/04/07 15:20:09;;;;;;;1.02;0.20;;;14.90;89.00;;;;;;4840718;29;20053;-81
2022/04/07 15:22:36;;;;;;;0.85;0.20;;;14.90;88.10;;;;;;4840389;29;20469;-83
2022/04/07 15:25:05;;;;;;;1.63;0.40;;;14.90;88.10;;;;;;4838835;29;20096;-83
2022/04/07 15:27:33;;;;;;;1.55;0.30;;;14.90;88.20;;;;;;4839552;29;20058;-83
2022/04/07 15:30:00;;;;;;;1.08;0.28;;;14.90;88.50;;;;;;4842465;29;20050;-81
2022/04/07 15:32:28;;;;;;;0.70;0.20;;;15.30;87.60;;;;;;4834190;29;20066;-82
2022/04/07 15:34:57;;;;;;;0.35;0.10;;;15.50;85.80;;;;;;4830832;29;20056;-81
2022/04/07 15:37:28;;;;;;;1.33;0.20;;;15.60;87.00;;;;;;4806791;29;20477;-82
2022/04/07 15:39:55;;;;;;;2.50;0.30;;;15.40;86.90;;;;;;4829191;29;20110;-82
2022/04/07 15:42:25;;;;;;;0.45;0.30;;;15.20;87.80;;;;;;4839734;29;20137;-82
2022/04/07 15:44:52;;;;;;;0.75;0.30;;;15.00;88.80;;;;;;4825949;29;20060;-82
2022/04/07 15:47:19;;;;;;;2.00;0.32;;;14.90;89.60;;;;;;4829031;29;20086;-82
2022/04/07 15:49:46;;;;;;;2.50;0.32;;;14.70;90.30;;;;;;4822895;29;20089;-81
2022/04/07 15:52:17;;;;;;;1.73;0.20;;;14.60;91.00;;;;;;4822987;29;20121;-83
2022/04/07 15:54:44;;;;;;;1.52;0.30;;;14.50;92.20;;;;;;4820724;29;20086;-81
2022/04/07 15:57:12;;;;;;;1.15;0.30;;;14.50;91.90;;;;;;4823055;29;20082;-80
2022/04/07 15:59:39;;;;;;;0.65;0.20;;;14.50;92.50;;;;;;4838577;29;20159;-81
2022/04/07 16:02:06;;;;;;;1.15;0.20;;;14.50;92.00;;;;;;4840861;29;20061;-81
2022/04/07 16:04:33;;;;;;;2.25;0.50;;;14.40;92.30;;;;;;4841155;29;20061;-81
2022/04/07 16:07:01;;;;;;;1.77;0.40;;;14.30;92.30;;;;;;4840202;29;20503;-84
2022/04/07 16:09:31;;;;;;;1.33;0.30;;;14.30;92.60;;;;;;4838525;29;20050;-82
2022/04/07 16:11:58;;;;;;;1.42;0.30;;;14.20;93.00;;;;;;4812452;29;20054;-81
2022/04/07 16:14:28;;;;;;;2.58;0.40;;;14.20;93.50;;;;;;4822827;29;20057;-80
2022/04/07 16:16:56;;;;;;;1.33;0.30;;;14.10;93.00;;;;;;4837490;29;20046;-80
2022/04/07 16:19:23;;;;;;;1.08;0.30;;;14.10;93.10;;;;;;4838826;29;20172;-80
2022/04/07 16:21:50;;;;;;;1.02;0.28;;;14.10;93.90;;;;;;4837879;29;20152;-82
2022/04/07 16:24:17;;;;;;;1.17;0.40;;;14.00;94.60;;;;;;4837386;29;20049;-81
2022/04/07 16:26:46;;;;;;;1.02;0.30;;;13.90;95.60;;;;;;4837674;29;20295;-81
2022/04/07 16:29:15;;;;;;;2.60;0.40;;;13.80;95.70;;;;;;4839173;29;20057;-79
2022/04/07 16:31:42;;;;;;;2.03;0.50;;;13.80;96.00;;;;;;4833060;29;20056;-81
2022/04/07 16:34:15;;;;;;;3.75;0.30;;;13.80;97.50;;;;;;4837906;29;20046;-82
2022/04/07 16:36:42;;;;;;;0.93;0.30;;;13.70;97.10;;;;;;4835303;29;20156;-80
2022/04/07 16:39:09;;;;;;;0.95;0.40;;;13.50;98.80;;;;;;4813830;29;20492;-84
2022/04/07 16:41:36;;;;;;;1.77;0.45;;;13.40;99.30;;;;;;4822673;29;20054;-85
2022/04/07 16:44:05;;;;;;;2.35;0.70;;;13.10;99.90;;;;;;4817334;29;20073;-84
2022/04/07 16:46:33;;;;;;;1.60;0.60;;;12.90;99.90;;;;;;4828464;29;20056;-84
2022/04/07 16:49:00;;;;;;;0.85;0.28;;;12.60;99.90;;;;;;4828458;29;20060;-85
2022/04/07 16:51:27;;;;;;;2.58;0.70;;;12.40;99.90;;;;;;4816050;29;20084;-86
2022/04/07 16:53:57;;;;;;;2.92;0.40;;;12.20;99.90;;;;;;4821455;29;20053;-84
2022/04/07 16:56:24;;;;;;;2.58;0.50;;;11.90;99.90;;;;;;4817047;29;20078;-91
2022/04/07 16:58:51;;;;;;;3.25;0.60;;;11.60;99.90;;;;;;4831518;29;20133;-82
2022/04/07 17:01:21;;;;;;;4.80;0.70;;;11.40;99.90;;;;;;4822995;29;20062;-82
2022/04/07 17:03:48;;;;;;;2.42;0.60;;;11.20;99.90;;;;;;4830040;29;20141;-83
2022/04/07 17:06:15;;;;;;;1.58;0.60;;;11.10;99.90;;;;;;4827580;29;20054;-83
2022/04/07 17:08:43;;;;;;;3.03;0.70;;;11.20;99.90;;;;;;4833894;29;20094;-81
2022/04/07 17:11:10;;;;;;;1.65;0.60;;;11.10;99.90;;;;;;4831456;29;20053;-84
2022/04/07 17:13:37;;;;;;;2.25;0.50;;;11.10;99.90;;;;;;4828822;29;20053;-83
2022/04/07 17:16:05;;;;;;;2.60;0.95;;;11.00;99.90;;;;;;4824732;29;20045;-82
2022/04/07 17:18:34;;;;;;;2.47;0.80;;;10.90;99.90;;;;;;4822551;29;20055;-87
2022/04/07 17:21:01;;;;;;;1.52;0.50;;;10.80;99.90;;;;;;4833850;29;20055;-84
2022/04/07 17:23:28;;;;;;;1.40;0.60;;;10.70;99.90;;;;;;4841078;29;20065;-82
2022/04/07 17:25:57;;;;;;;2.17;0.60;;;10.70;99.90;;;;;;4832430;29;20593;-82
2022/04/07 17:28:24;;;;;;;1.55;0.50;;;10.60;99.90;;;;;;4841215;29;20113;-87
2022/04/07 17:30:52;;;;;;;1.92;0.60;;;10.70;99.90;;;;;;4844679;29;20065;-85
2022/04/07 17:33:19;;;;;;;1.67;0.70;;;10.70;99.90;;;;;;4851587;29;20113;-88
2022/04/07 17:35:48;;;;;;;2.05;0.50;;;10.70;99.90;;;;;;4838610;29;20133;-91
2022/04/07 17:38:15;;;;;;;1.45;0.50;;;10.70;99.90;;;;;;4815809;29;20046;-92
2022/04/07 17:40:42;;;;;;;2.17;0.57;;;10.60;99.90;;;;;;4832787;29;20081;-87
2022/04/07 17:43:12;;;;;;;1.45;0.45;;;10.60;99.90;;;;;;4827972;29;20584;-88
2022/04/07 17:45:39;;;;;;;0.98;0.30;;;10.60;99.90;;;;;;4810531;29;20062;-87
2022/04/07 17:48:07;;;;;;;2.20;0.43;;;10.50;99.90;;;;;;4823305;29;20055;-85
2022/04/07 17:50:35;;;;;;;1.00;0.35;;;10.50;99.90;;;;;;4819682;29;20065;-84
2022/04/07 17:53:04;;;;;;;1.85;0.60;;;10.50;99.90;;;;;;4802326;29;20138;-84
2022/04/07 17:55:31;;;;;;;2.38;0.60;;;10.50;99.90;;;;;;4808286;29;20058;-83
2022/04/07 17:57:59;;;;;;;2.35;0.43;;;10.50;99.90;;;;;;4821961;29;20054;-83
2022/04/07 18:00:26;;;;;;;0.80;0.30;;;10.50;99.90;;;;;;4820721;29;20397;-84